createdAt,value
2022-11-07T00:00:39.364Z,11.12
2022-11-07T00:01:39.401Z,11.21
2022-11-07T00:02:39.364Z,11.27
2022-11-07T00:03:39.344Z,11.21
2022-11-07T00:04:39.480Z,11.33
2022-11-07T00:05:39.327Z,11.42
2022-11-07T00:06:39.325Z,11.49
2022-11-07T00:07:39.293Z,11.41
2022-11-07T00:08:39.320Z,11.54
2022-11-07T00:09:39.269Z,11.59
2022-11-07T00:10:39.243Z,11.56
2022-11-07T00:11:39.256Z,11.53
2022-11-07T00:12:39.284Z,11.59
2022-11-07T00:13:39.211Z,11.49
2022-11-07T00:14:39.211Z,11.62
2022-11-07T00:15:40.213Z,11.63
2022-11-07T00:16:39.212Z,11.62
2022-11-07T00:17:39.167Z,11.54
2022-11-07T00:18:39.207Z,11.57
2022-11-07T00:19:39.151Z,11.53
2022-11-07T00:20:39.143Z,11.57
2022-11-07T00:21:39.147Z,11.56
2022-11-07T00:22:39.155Z,11.49
2022-11-07T00:23:39.181Z,11.53
2022-11-07T00:24:39.089Z,11.38
2022-11-07T00:25:39.106Z,11.42
2022-11-07T00:26:39.091Z,11.42
2022-11-07T00:27:39.169Z,11.41
2022-11-07T00:28:39.051Z,11.54
2022-11-07T00:29:39.103Z,11.41
2022-11-07T00:30:39.089Z,11.42
2022-11-07T00:31:39.031Z,11.30
2022-11-07T00:32:39.056Z,11.26
2022-11-07T00:33:39.023Z,11.24
2022-11-07T00:34:38.991Z,11.23
2022-11-07T00:35:39.049Z,11.26
2022-11-07T00:36:38.963Z,11.13
2022-11-07T00:37:38.972Z,11.17
2022-11-07T00:38:38.996Z,11.09
2022-11-07T00:39:38.948Z,11.06
2022-11-07T00:40:38.927Z,10.91
2022-11-07T00:41:38.994Z,10.88
2022-11-07T00:42:38.913Z,10.91
2022-11-07T00:43:38.924Z,10.94
2022-11-07T00:44:38.919Z,10.81
2022-11-07T00:45:38.867Z,10.87
2022-11-07T00:46:38.859Z,10.87
2022-11-07T00:47:38.923Z,10.91
2022-11-07T00:48:38.847Z,10.95
2022-11-07T00:49:38.827Z,10.99
2022-11-07T00:50:38.829Z,11.05
2022-11-07T00:51:38.841Z,11.08
2022-11-07T00:52:38.851Z,11.20
2022-11-07T00:53:38.784Z,11.57
2022-11-07T00:54:38.783Z,11.94
2022-11-07T00:55:38.778Z,12.01
2022-11-07T00:56:38.761Z,12.15
2022-11-07T00:57:38.783Z,12.16
2022-11-07T00:58:38.727Z,12.08
2022-11-07T00:59:38.734Z,12.03
2022-11-07T01:00:38.814Z,12.03
2022-11-07T01:01:38.805Z,11.98
2022-11-07T01:02:38.835Z,11.87
2022-11-07T01:03:38.724Z,11.81
2022-11-07T01:04:38.701Z,11.90
2022-11-07T01:05:38.656Z,11.97
2022-11-07T01:06:38.696Z,12.03
2022-11-07T01:07:39.033Z,12.15
2022-11-07T01:08:45.722Z,12.15
2022-11-07T01:09:38.603Z,12.16
2022-11-07T01:10:38.599Z,12.11
2022-11-07T01:11:38.603Z,11.97
2022-11-07T01:12:38.568Z,12.16
2022-11-07T01:13:38.596Z,12.29
2022-11-07T01:14:38.671Z,12.07
2022-11-07T01:15:38.581Z,12.16
2022-11-07T01:16:38.559Z,12.12
2022-11-07T01:17:38.523Z,12.16
2022-11-07T01:18:38.527Z,12.13
2022-11-07T01:19:38.632Z,12.15
2022-11-07T01:20:38.493Z,12.16
2022-11-07T01:21:38.515Z,12.13
2022-11-07T01:22:38.594Z,12.15
2022-11-07T01:23:38.488Z,12.01
2022-11-07T01:24:38.470Z,11.97
2022-11-07T01:25:38.450Z,11.98
2022-11-07T01:26:38.481Z,11.93
2022-11-07T01:27:38.456Z,11.84
2022-11-07T01:28:38.441Z,11.87
2022-11-07T01:29:38.405Z,11.82
2022-11-07T01:30:38.402Z,11.81
2022-11-07T01:31:38.414Z,11.85
2022-11-07T01:32:38.373Z,11.78
2022-11-07T01:33:38.348Z,11.84
2022-11-07T01:34:38.423Z,11.79
2022-11-07T01:35:38.334Z,11.84
2022-11-07T01:36:38.413Z,11.78
2022-11-07T01:37:38.337Z,11.90
2022-11-07T01:38:38.297Z,11.84
2022-11-07T01:39:38.310Z,11.88
2022-11-07T01:40:38.319Z,11.94
2022-11-07T01:41:38.326Z,12.04
2022-11-07T01:42:38.280Z,11.94
2022-11-07T01:43:38.309Z,12.00
2022-11-07T01:44:38.243Z,12.03
2022-11-07T01:45:38.254Z,12.01
2022-11-07T01:46:38.223Z,11.90
2022-11-07T01:47:38.329Z,11.84
2022-11-07T01:48:38.203Z,11.77
2022-11-07T01:49:38.173Z,11.64
2022-11-07T01:50:38.233Z,11.64
2022-11-07T01:51:38.159Z,11.57
2022-11-07T01:52:38.190Z,11.62
2022-11-07T01:53:38.159Z,11.57
2022-11-07T01:54:38.231Z,11.69
2022-11-07T01:55:38.152Z,11.63
2022-11-07T01:56:38.130Z,11.74
2022-11-07T01:57:38.124Z,11.81
2022-11-07T01:58:38.082Z,11.84
2022-11-07T01:59:38.298Z,11.84
2022-11-07T02:00:38.076Z,12.05
2022-11-07T02:01:38.262Z,12.15
2022-11-07T02:02:38.306Z,12.38
2022-11-07T02:03:38.041Z,12.37
2022-11-07T02:04:38.048Z,12.40
2022-11-07T02:05:38.042Z,12.41
2022-11-07T02:06:38.112Z,12.49
2022-11-07T02:07:38.010Z,12.38
2022-11-07T02:08:37.984Z,12.43
2022-11-07T02:09:37.980Z,12.43
2022-11-07T02:10:37.994Z,12.48
2022-11-07T02:11:37.933Z,12.46
2022-11-07T02:12:38.026Z,12.46
2022-11-07T02:13:37.940Z,12.51
2022-11-07T02:14:37.924Z,12.54
2022-11-07T02:15:37.954Z,12.59
2022-11-07T02:16:37.933Z,12.73
2022-11-07T02:17:37.880Z,12.62
2022-11-07T02:18:37.930Z,12.69
2022-11-07T02:19:37.893Z,12.66
2022-11-07T02:20:37.857Z,12.61
2022-11-07T02:21:37.847Z,12.73
2022-11-07T02:22:37.855Z,12.69
2022-11-07T02:23:37.824Z,12.71
2022-11-07T02:24:37.847Z,12.67
2022-11-07T02:25:37.917Z,12.58
2022-11-07T02:26:37.784Z,12.67
2022-11-07T02:27:37.839Z,12.70
2022-11-07T02:28:37.770Z,12.80
2022-11-07T02:29:37.741Z,12.70
2022-11-07T02:30:37.802Z,12.70
2022-11-07T02:31:37.774Z,12.76
2022-11-07T02:32:37.762Z,12.79
2022-11-07T02:33:37.733Z,12.79
2022-11-07T02:34:37.695Z,12.80
2022-11-07T02:35:37.765Z,12.88
2022-11-07T02:36:37.693Z,12.87
2022-11-07T02:37:37.699Z,12.77
2022-11-07T02:38:37.706Z,12.87
2022-11-07T02:39:37.660Z,12.84
2022-11-07T02:40:37.654Z,12.79
2022-11-07T02:41:37.652Z,12.84
2022-11-07T02:42:37.681Z,12.91
2022-11-07T02:43:37.595Z,12.92
2022-11-07T02:44:37.640Z,12.95
2022-11-07T02:45:37.608Z,12.94
2022-11-07T02:46:37.596Z,13.04
2022-11-07T02:47:37.614Z,13.06
2022-11-07T02:48:37.590Z,13.06
2022-11-07T02:49:37.588Z,13.04
2022-11-07T02:50:37.620Z,13.07
2022-11-07T02:51:37.568Z,13.04
2022-11-07T02:52:37.540Z,12.99
2022-11-07T02:53:37.564Z,13.10
2022-11-07T02:54:37.510Z,12.99
2022-11-07T02:55:37.483Z,12.92
2022-11-07T02:56:37.470Z,12.91
2022-11-07T02:57:37.510Z,12.89
2022-11-07T02:58:37.485Z,12.85
2022-11-07T02:59:37.430Z,12.87
2022-11-07T03:00:37.427Z,12.79
2022-11-07T03:01:37.584Z,12.73
2022-11-07T03:02:37.549Z,12.76
2022-11-07T03:03:37.467Z,12.76
2022-11-07T03:04:37.410Z,12.67
2022-11-07T03:05:37.377Z,12.61
2022-11-07T03:06:37.370Z,12.58
2022-11-07T03:07:37.408Z,12.73
2022-11-07T03:08:37.375Z,12.79
2022-11-07T03:09:37.311Z,12.74
2022-11-07T03:10:37.352Z,12.67
2022-11-07T03:11:37.386Z,12.71
2022-11-07T03:12:37.756Z,12.67
2022-11-07T03:13:37.264Z,12.79
2022-11-07T03:14:37.304Z,12.74
2022-11-07T03:15:37.274Z,12.87
2022-11-07T03:16:37.268Z,12.95
2022-11-07T03:17:37.293Z,13.04
2022-11-07T03:18:37.252Z,13.06
2022-11-07T03:19:37.218Z,12.91
2022-11-07T03:20:37.261Z,12.89
2022-11-07T03:21:37.186Z,12.92
2022-11-07T03:22:37.190Z,12.89
2022-11-07T03:23:37.246Z,12.84
2022-11-07T03:24:37.216Z,12.89
2022-11-07T03:25:37.151Z,12.92
2022-11-07T03:26:37.152Z,12.85
2022-11-07T03:27:37.169Z,12.85
2022-11-07T03:28:37.140Z,12.92
2022-11-07T03:29:37.126Z,12.80
2022-11-07T03:30:37.104Z,12.70
2022-11-07T03:31:37.155Z,12.52
2022-11-07T03:32:37.123Z,12.58
2022-11-07T03:33:37.084Z,12.58
2022-11-07T03:34:37.040Z,12.55
2022-11-07T03:35:37.068Z,12.55
2022-11-07T03:36:37.069Z,12.54
2022-11-07T03:37:37.067Z,12.56
2022-11-07T03:38:37.007Z,12.54
2022-11-07T03:39:37.023Z,12.34
2022-11-07T03:40:37.121Z,12.41
2022-11-07T03:41:37.000Z,12.23
2022-11-07T03:42:36.988Z,12.29
2022-11-07T03:43:36.973Z,12.15
2022-11-07T03:44:36.939Z,12.15
2022-11-07T03:45:36.973Z,12.18
2022-11-07T03:46:36.929Z,12.16
2022-11-07T03:47:36.969Z,12.01
2022-11-07T03:48:36.973Z,12.01
2022-11-07T03:49:36.945Z,12.00
2022-11-07T03:50:36.872Z,11.96
2022-11-07T03:51:36.896Z,12.05
2022-11-07T03:52:36.952Z,12.05
2022-11-07T03:53:36.853Z,12.03
2022-11-07T03:54:36.840Z,12.04
2022-11-07T03:55:36.882Z,11.97
2022-11-07T03:56:36.867Z,12.01
2022-11-07T03:57:36.801Z,12.03
2022-11-07T03:58:36.856Z,12.05
2022-11-07T03:59:36.827Z,12.00
2022-11-07T04:00:36.830Z,11.93
2022-11-07T04:01:36.934Z,11.90
2022-11-07T04:02:37.019Z,11.79
2022-11-07T04:03:36.788Z,11.74
2022-11-07T04:04:36.742Z,11.78
2022-11-07T04:05:36.778Z,11.63
2022-11-07T04:06:36.719Z,11.57
2022-11-07T04:07:36.842Z,11.64
2022-11-07T04:08:36.677Z,11.63
2022-11-07T04:09:36.724Z,11.62
2022-11-07T04:10:36.710Z,11.75
2022-11-07T04:11:36.708Z,11.64
2022-11-07T04:12:36.648Z,11.70
2022-11-07T04:13:36.639Z,11.82
2022-11-07T04:14:36.635Z,11.88
2022-11-07T04:15:36.673Z,11.81
2022-11-07T04:16:36.644Z,11.87
2022-11-07T04:17:36.822Z,11.87
2022-11-07T04:18:36.685Z,12.04
2022-11-07T04:19:36.560Z,12.04
2022-11-07T04:20:36.585Z,12.26
2022-11-07T04:21:36.599Z,12.41
2022-11-07T04:22:36.646Z,12.41
2022-11-07T04:23:36.565Z,12.55
2022-11-07T04:24:40.241Z,12.59
2022-11-07T04:25:37.581Z,12.55
2022-11-07T04:26:36.525Z,12.63
2022-11-07T04:27:36.474Z,12.74
2022-11-07T04:28:36.534Z,12.71
2022-11-07T04:29:36.456Z,12.87
2022-11-07T04:30:36.444Z,12.89
2022-11-07T04:31:36.442Z,12.77
2022-11-07T04:32:36.456Z,12.74
2022-11-07T04:33:36.483Z,12.74
2022-11-07T04:34:36.425Z,12.77
2022-11-07T04:35:36.395Z,12.88
2022-11-07T04:36:36.462Z,12.91
2022-11-07T04:37:36.394Z,12.95
2022-11-07T04:38:36.390Z,12.98
2022-11-07T04:39:36.376Z,12.92
2022-11-07T04:40:36.344Z,13.03
2022-11-07T04:41:36.357Z,12.98
2022-11-07T04:42:36.316Z,12.98
2022-11-07T04:43:36.338Z,12.91
2022-11-07T04:44:36.289Z,12.85
2022-11-07T04:45:36.305Z,12.91
2022-11-07T04:46:36.335Z,12.88
2022-11-07T04:47:40.210Z,12.99
2022-11-07T04:48:36.287Z,12.98
2022-11-07T04:49:36.258Z,13.09
2022-11-07T04:50:36.232Z,13.13
2022-11-07T04:51:36.263Z,13.09
2022-11-07T04:52:36.265Z,13.16
2022-11-07T04:53:36.193Z,13.10
2022-11-07T04:54:36.196Z,13.01
2022-11-07T04:55:36.191Z,12.85
2022-11-07T04:56:36.182Z,12.96
2022-11-07T04:57:36.213Z,12.95
2022-11-07T04:58:36.186Z,13.06
2022-11-07T04:59:36.175Z,13.12
2022-11-07T05:00:36.118Z,13.14
2022-11-07T05:01:36.328Z,13.09
2022-11-07T05:02:36.152Z,13.19
2022-11-07T05:03:41.272Z,13.17
2022-11-07T05:04:37.104Z,13.17
2022-11-07T05:05:36.089Z,13.10
2022-11-07T05:06:36.184Z,13.12
2022-11-07T05:07:36.051Z,13.10
2022-11-07T05:08:36.028Z,13.12
2022-11-07T05:09:36.038Z,13.14
2022-11-07T05:10:36.012Z,13.10
2022-11-07T05:11:36.047Z,13.16
2022-11-07T05:12:36.078Z,13.06
2022-11-07T05:13:36.055Z,13.09
2022-11-07T05:14:35.970Z,13.14
2022-11-07T05:15:36.036Z,13.06
2022-11-07T05:16:35.992Z,13.10
2022-11-07T05:17:35.928Z,13.10
2022-11-07T05:18:35.944Z,13.07
2022-11-07T05:19:35.987Z,13.03
2022-11-07T05:20:35.923Z,13.07
2022-11-07T05:21:35.960Z,13.07
2022-11-07T05:22:35.878Z,13.09
2022-11-07T05:23:35.883Z,13.09
2022-11-07T05:24:35.859Z,12.94
2022-11-07T05:25:35.875Z,12.91
2022-11-07T05:26:35.882Z,12.94
2022-11-07T05:27:35.863Z,12.99
2022-11-07T05:28:39.505Z,13.06
2022-11-07T05:29:35.862Z,13.03
2022-11-07T05:30:35.821Z,13.03
2022-11-07T05:31:35.827Z,12.99
2022-11-07T05:32:35.784Z,13.06
2022-11-07T05:33:35.873Z,12.99
2022-11-07T05:34:35.752Z,12.87
2022-11-07T05:35:35.759Z,12.84
2022-11-07T05:36:35.792Z,12.99
2022-11-07T05:37:35.771Z,13.03
2022-11-07T05:38:35.730Z,12.96
2022-11-07T05:39:35.767Z,13.03
2022-11-07T05:40:35.681Z,12.95
2022-11-07T05:41:35.729Z,12.84
2022-11-07T05:42:35.764Z,12.91
2022-11-07T05:43:35.695Z,12.87
2022-11-07T05:44:35.679Z,12.91
2022-11-07T05:45:35.656Z,12.88
2022-11-07T05:46:35.639Z,12.94
2022-11-07T05:47:35.652Z,12.91
2022-11-07T05:48:35.615Z,12.94
2022-11-07T05:49:35.611Z,13.03
2022-11-07T05:50:35.613Z,12.89
2022-11-07T05:51:35.595Z,12.95
2022-11-07T05:52:35.593Z,12.98
2022-11-07T05:53:35.729Z,12.96
2022-11-07T05:54:35.562Z,12.99
2022-11-07T05:55:35.521Z,12.94
2022-11-07T05:56:35.777Z,12.94
2022-11-07T05:57:35.526Z,12.89
2022-11-07T05:58:35.555Z,12.84
2022-11-07T05:59:35.501Z,12.92
2022-11-07T06:00:35.503Z,12.94
2022-11-07T06:01:35.575Z,12.91
2022-11-07T06:02:35.578Z,12.88
2022-11-07T06:03:35.473Z,12.74
2022-11-07T06:04:35.514Z,12.88
2022-11-07T06:05:35.443Z,12.92
2022-11-07T06:06:35.415Z,12.94
2022-11-07T06:07:35.411Z,12.92
2022-11-07T06:08:35.439Z,12.91
2022-11-07T06:09:35.407Z,12.88
2022-11-07T06:10:35.461Z,12.85
2022-11-07T06:11:35.350Z,12.89
2022-11-07T06:12:35.408Z,12.94
2022-11-07T06:13:35.356Z,12.98
2022-11-07T06:14:35.366Z,13.01
2022-11-07T06:15:35.357Z,13.07
2022-11-07T06:16:35.296Z,13.09
2022-11-07T06:17:35.351Z,12.98
2022-11-07T06:18:40.322Z,12.95
2022-11-07T06:19:36.346Z,12.99
2022-11-07T06:20:35.256Z,13.04
2022-11-07T06:21:35.245Z,13.04
2022-11-07T06:22:35.546Z,13.03
2022-11-07T06:23:35.298Z,12.87
2022-11-07T06:24:35.242Z,12.91
2022-11-07T06:25:35.258Z,12.81
2022-11-07T06:26:35.197Z,12.76
2022-11-07T06:27:35.232Z,12.70
2022-11-07T06:28:35.206Z,12.66
2022-11-07T06:29:35.181Z,12.67
2022-11-07T06:30:35.145Z,12.70
2022-11-07T06:31:35.222Z,12.87
2022-11-07T06:32:35.169Z,12.91
2022-11-07T06:33:35.130Z,12.89
2022-11-07T06:34:35.103Z,12.89
2022-11-07T06:35:35.162Z,12.87
2022-11-07T06:36:35.099Z,12.81
2022-11-07T06:37:35.086Z,12.91
2022-11-07T06:38:35.207Z,12.87
2022-11-07T06:39:35.048Z,12.89
2022-11-07T06:40:35.038Z,12.94
2022-11-07T06:41:35.044Z,12.99
2022-11-07T06:42:35.017Z,12.99
2022-11-07T06:43:35.055Z,12.94
2022-11-07T06:44:35.021Z,12.84
2022-11-07T06:45:34.984Z,12.85
2022-11-07T06:46:34.971Z,12.85
2022-11-07T06:47:35.003Z,12.94
2022-11-07T06:48:34.980Z,13.07
2022-11-07T06:49:34.982Z,13.16
2022-11-07T06:50:34.968Z,13.16
2022-11-07T06:51:34.925Z,13.22
2022-11-07T06:52:34.914Z,13.22
2022-11-07T06:53:34.966Z,13.22
2022-11-07T06:54:35.006Z,13.16
2022-11-07T06:55:34.877Z,13.10
2022-11-07T06:56:34.957Z,13.16
2022-11-07T06:57:34.928Z,13.29
2022-11-07T06:58:34.901Z,13.31
2022-11-07T06:59:34.861Z,13.39
2022-11-07T07:00:34.907Z,13.28
2022-11-07T07:01:35.161Z,13.36
2022-11-07T07:02:57.317Z,13.24
2022-11-07T07:03:36.004Z,13.14
2022-11-07T07:04:34.792Z,13.22
2022-11-07T07:05:34.803Z,13.16
2022-11-07T07:06:35.072Z,13.14
2022-11-07T07:07:34.753Z,13.22
2022-11-07T07:08:34.733Z,13.22
2022-11-07T07:09:34.746Z,13.16
2022-11-07T07:10:34.785Z,13.24
2022-11-07T07:11:34.732Z,13.28
2022-11-07T07:12:34.697Z,13.32
2022-11-07T07:13:34.727Z,13.21
2022-11-07T07:14:34.770Z,13.22
2022-11-07T07:15:47.855Z,13.25
2022-11-07T07:16:35.694Z,13.32
2022-11-07T07:17:34.655Z,13.25
2022-11-07T07:18:34.649Z,13.24
2022-11-07T07:19:34.743Z,13.41
2022-11-07T07:20:34.649Z,13.41
2022-11-07T07:21:34.619Z,13.41
2022-11-07T07:22:34.623Z,13.41
2022-11-07T07:23:34.593Z,13.53
2022-11-07T07:24:34.573Z,13.50
2022-11-07T07:25:34.586Z,13.63
2022-11-07T07:26:34.625Z,13.62
2022-11-07T07:27:34.578Z,13.75
2022-11-07T07:28:34.521Z,13.57
2022-11-07T07:29:34.545Z,13.53
2022-11-07T07:30:34.583Z,13.61
2022-11-07T07:31:34.502Z,13.69
2022-11-07T07:32:34.515Z,13.55
2022-11-07T07:33:34.517Z,13.65
2022-11-07T07:34:34.465Z,13.59
2022-11-07T07:35:34.562Z,13.66
2022-11-07T07:36:34.530Z,13.72
2022-11-07T07:37:34.430Z,13.71
2022-11-07T07:38:34.478Z,13.79
2022-11-07T07:39:34.437Z,13.87
2022-11-07T07:40:34.445Z,13.90
2022-11-07T07:41:39.929Z,13.98
2022-11-07T07:42:35.388Z,14.09
2022-11-07T07:43:34.389Z,14.04
2022-11-07T07:44:34.349Z,14.05
2022-11-07T07:45:34.336Z,14.08
2022-11-07T07:46:34.347Z,14.06
2022-11-07T07:47:34.346Z,14.09
2022-11-07T07:48:34.335Z,14.16
2022-11-07T07:49:34.314Z,14.17
2022-11-07T07:50:34.333Z,14.09
2022-11-07T07:51:34.409Z,14.30
2022-11-07T07:52:34.342Z,14.38
2022-11-07T07:53:34.257Z,14.31
2022-11-07T07:54:34.245Z,14.35
2022-11-07T07:55:34.237Z,14.41
2022-11-07T07:56:34.243Z,14.41
2022-11-07T07:57:34.276Z,14.42
2022-11-07T07:58:34.224Z,14.39
2022-11-07T07:59:34.188Z,14.54
2022-11-07T08:00:34.305Z,14.69
2022-11-07T08:01:34.408Z,14.75
2022-11-07T08:02:34.217Z,14.80
2022-11-07T08:03:57.604Z,14.83
2022-11-07T08:04:35.152Z,14.80
2022-11-07T08:05:34.119Z,14.79
2022-11-07T08:06:34.139Z,14.74
2022-11-07T08:07:34.218Z,14.91
2022-11-07T08:08:38.226Z,15.11
2022-11-07T08:09:34.127Z,15.25
2022-11-07T08:10:42.870Z,15.60
2022-11-07T08:11:35.115Z,15.89
2022-11-07T08:12:34.047Z,15.93
2022-11-07T08:13:34.105Z,15.92
2022-11-07T08:14:34.028Z,16.10
2022-11-07T08:15:34.036Z,16.11
2022-11-07T08:16:34.145Z,15.93
2022-11-07T08:17:34.063Z,15.74
2022-11-07T08:18:33.992Z,15.62
2022-11-07T08:19:34.056Z,15.92
2022-11-07T08:20:33.974Z,16.18
2022-11-07T08:21:33.989Z,16.45
2022-11-07T08:22:33.960Z,16.77
2022-11-07T08:23:34.073Z,17.00
2022-11-07T08:24:34.023Z,17.17
2022-11-07T08:25:33.907Z,16.99
2022-11-07T08:26:33.945Z,16.51
2022-11-07T08:27:33.915Z,16.30
2022-11-07T08:28:33.941Z,16.66
2022-11-07T08:29:33.861Z,16.65
2022-11-07T08:30:33.861Z,16.80
2022-11-07T08:31:33.935Z,16.73
2022-11-07T08:32:33.872Z,17.06
2022-11-07T08:33:33.876Z,17.49
2022-11-07T08:34:33.826Z,18.01
2022-11-07T08:35:38.150Z,18.14
2022-11-07T08:36:34.988Z,18.28
2022-11-07T08:37:33.802Z,17.96
2022-11-07T08:38:33.792Z,18.16
2022-11-07T08:39:33.776Z,18.42
2022-11-07T08:40:33.823Z,18.16
2022-11-07T08:41:33.777Z,17.71
2022-11-07T08:42:33.779Z,17.39
2022-11-07T08:43:33.721Z,17.30
2022-11-07T08:44:33.700Z,17.02
2022-11-07T08:45:33.788Z,16.75
2022-11-07T08:46:33.714Z,16.55
2022-11-07T08:47:33.711Z,16.69
2022-11-07T08:48:33.738Z,16.67
2022-11-07T08:49:33.694Z,16.70
2022-11-07T08:50:33.637Z,16.88
2022-11-07T08:51:33.644Z,16.87
2022-11-07T08:52:33.703Z,16.75
2022-11-07T08:53:33.659Z,16.59
2022-11-07T08:54:33.675Z,16.29
2022-11-07T08:55:33.730Z,16.08
2022-11-07T08:56:33.579Z,15.95
2022-11-07T08:57:33.570Z,15.88
2022-11-07T08:58:33.593Z,15.93
2022-11-07T08:59:33.585Z,15.89
2022-11-07T09:00:33.556Z,15.74
2022-11-07T09:01:33.635Z,15.77
2022-11-07T09:03:56.575Z,15.76
2022-11-07T09:04:34.561Z,15.77
2022-11-07T09:05:33.540Z,15.71
2022-11-07T09:06:33.481Z,15.73
2022-11-07T09:07:33.521Z,15.80
2022-11-07T09:08:33.547Z,15.74
2022-11-07T09:09:33.434Z,15.66
2022-11-07T09:10:33.469Z,15.70
2022-11-07T09:11:33.581Z,15.71
2022-11-07T09:12:33.425Z,15.70
2022-11-07T09:13:33.505Z,15.64
2022-11-07T09:14:33.408Z,15.73
2022-11-07T09:15:33.437Z,15.85
2022-11-07T09:16:33.399Z,15.78
2022-11-07T09:17:33.365Z,15.78
2022-11-07T09:18:33.338Z,15.76
2022-11-07T09:19:33.349Z,15.64
2022-11-07T09:20:33.358Z,15.66
2022-11-07T09:21:33.338Z,15.64
2022-11-07T09:22:33.299Z,15.70
2022-11-07T09:23:33.295Z,15.77
2022-11-07T09:24:33.281Z,15.76
2022-11-07T09:25:33.296Z,15.73
2022-11-07T09:26:33.320Z,15.88
2022-11-07T09:27:33.289Z,15.88
2022-11-07T09:28:33.249Z,15.92
2022-11-07T09:29:33.263Z,15.71
2022-11-07T09:30:33.203Z,15.68
2022-11-07T09:31:33.216Z,15.66
2022-11-07T09:32:46.139Z,15.56
2022-11-07T09:33:34.218Z,15.62
2022-11-07T09:34:33.206Z,15.53
2022-11-07T09:35:33.162Z,15.62
2022-11-07T09:36:33.282Z,15.64
2022-11-07T09:37:33.136Z,15.66
2022-11-07T09:38:33.119Z,15.66
2022-11-07T09:39:33.108Z,15.74
2022-11-07T09:40:33.156Z,15.78
2022-11-07T09:41:33.185Z,15.80
2022-11-07T09:42:33.119Z,15.99
2022-11-07T09:43:33.107Z,15.98
2022-11-07T09:44:36.606Z,15.98
2022-11-07T09:45:33.051Z,15.98
2022-11-07T09:46:33.061Z,15.89
2022-11-07T09:47:33.066Z,15.92
2022-11-07T09:48:33.024Z,15.95
2022-11-07T09:49:33.009Z,15.86
2022-11-07T09:50:33.143Z,15.89
2022-11-07T09:51:33.028Z,15.93
2022-11-07T09:52:32.992Z,16.07
2022-11-07T09:53:32.977Z,16.06
2022-11-07T09:54:33.015Z,16.14
2022-11-07T09:55:32.932Z,16.17
2022-11-07T09:56:32.944Z,16.26
2022-11-07T09:57:32.946Z,16.36
2022-11-07T09:58:32.934Z,16.33
2022-11-07T09:59:32.941Z,16.41
2022-11-07T10:00:32.933Z,16.37
2022-11-07T10:01:33.048Z,16.48
2022-11-07T10:02:32.970Z,16.45
2022-11-07T10:03:32.868Z,16.37
2022-11-07T10:04:32.846Z,16.26
2022-11-07T10:05:32.844Z,16.17
2022-11-07T10:06:32.856Z,16.17
2022-11-07T10:07:32.823Z,16.23
2022-11-07T10:08:32.851Z,16.16
2022-11-07T10:09:32.784Z,16.13
2022-11-07T10:10:32.776Z,16.17
2022-11-07T10:11:32.850Z,16.14
2022-11-07T10:12:32.777Z,16.25
2022-11-07T10:13:32.777Z,16.30
2022-11-07T10:14:32.743Z,16.27
2022-11-07T10:15:33.752Z,16.32
2022-11-07T10:16:32.778Z,16.29
2022-11-07T10:17:32.715Z,16.29
2022-11-07T10:18:32.748Z,16.37
2022-11-07T10:19:32.678Z,16.47
2022-11-07T10:20:32.669Z,16.55
2022-11-07T10:21:38.120Z,16.63
2022-11-07T10:22:33.661Z,16.67
2022-11-07T10:23:32.636Z,16.81
2022-11-07T10:24:32.645Z,16.91
2022-11-07T10:25:32.649Z,16.90
2022-11-07T10:26:32.634Z,16.99
2022-11-07T10:27:33.134Z,17.05
2022-11-07T10:28:32.650Z,17.10
2022-11-07T10:29:32.627Z,17.12
2022-11-07T10:30:32.563Z,17.14
2022-11-07T10:31:32.610Z,17.17
2022-11-07T10:32:32.597Z,17.05
2022-11-07T10:33:32.545Z,17.02
2022-11-07T10:34:32.548Z,16.96
2022-11-07T10:35:32.560Z,16.88
2022-11-07T10:36:32.567Z,16.84
2022-11-07T10:37:32.607Z,16.75
2022-11-07T10:38:32.584Z,16.51
2022-11-07T10:39:32.483Z,16.52
2022-11-07T10:40:32.512Z,16.45
2022-11-07T10:41:32.524Z,16.42
2022-11-07T10:42:32.432Z,16.34
2022-11-07T10:43:32.461Z,16.40
2022-11-07T10:44:32.437Z,16.51
2022-11-07T10:45:32.409Z,16.47
2022-11-07T10:46:32.422Z,16.65
2022-11-07T10:47:32.417Z,16.60
2022-11-07T10:48:32.452Z,16.59
2022-11-07T10:49:32.381Z,16.67
2022-11-07T10:50:32.354Z,16.66
2022-11-07T10:51:32.362Z,16.66
2022-11-07T10:52:32.359Z,16.75
2022-11-07T10:53:32.326Z,16.81
2022-11-07T10:54:32.381Z,16.88
2022-11-07T10:55:32.334Z,17.10
2022-11-07T10:56:32.294Z,17.20
2022-11-07T10:57:32.310Z,17.30
2022-11-07T10:58:32.263Z,17.47
2022-11-07T10:59:36.183Z,17.51
2022-11-07T11:00:32.240Z,17.62
2022-11-07T11:01:32.419Z,17.62
2022-11-07T11:02:32.233Z,17.80
2022-11-07T11:03:43.239Z,17.86
2022-11-07T11:04:33.214Z,17.96
2022-11-07T11:05:32.187Z,18.17
2022-11-07T11:06:32.180Z,18.72
2022-11-07T11:07:32.196Z,19.10
2022-11-07T11:08:32.149Z,19.09
2022-11-07T11:09:32.161Z,18.83
2022-11-07T11:10:32.242Z,18.72
2022-11-07T11:11:32.224Z,18.50
2022-11-07T11:12:34.316Z,18.41
2022-11-07T11:13:32.177Z,18.02
2022-11-07T11:14:32.142Z,17.86
2022-11-07T11:15:35.755Z,17.80
2022-11-07T11:16:32.115Z,17.77
2022-11-07T11:17:32.135Z,17.77
2022-11-07T11:18:32.091Z,17.91
2022-11-07T11:19:32.183Z,18.21
2022-11-07T11:20:32.051Z,18.14
2022-11-07T11:21:32.060Z,18.25
2022-11-07T11:22:32.019Z,18.11
2022-11-07T11:23:32.012Z,18.26
2022-11-07T11:24:31.995Z,17.98
2022-11-07T11:25:32.050Z,17.96
2022-11-07T11:26:31.990Z,17.70
2022-11-07T11:27:31.978Z,17.42
2022-11-07T11:28:31.982Z,17.30
2022-11-07T11:29:36.655Z,17.28
2022-11-07T11:30:32.957Z,17.15
2022-11-07T11:31:31.920Z,17.06
2022-11-07T11:32:31.981Z,17.03
2022-11-07T11:33:31.927Z,16.90
2022-11-07T11:34:31.898Z,16.88
2022-11-07T11:35:31.891Z,16.90
2022-11-07T11:36:31.976Z,16.81
2022-11-07T11:37:31.839Z,16.81
2022-11-07T11:38:31.833Z,16.77
2022-11-07T11:39:31.825Z,16.77
2022-11-07T11:40:31.811Z,16.80
2022-11-07T11:41:31.816Z,16.85
2022-11-07T11:42:31.808Z,16.85
2022-11-07T11:43:31.780Z,16.90
2022-11-07T11:44:32.043Z,16.91
2022-11-07T11:45:31.756Z,16.87
2022-11-07T11:46:31.792Z,16.90
2022-11-07T11:47:34.565Z,16.84
2022-11-07T11:48:31.731Z,16.82
2022-11-07T11:49:31.728Z,16.77
2022-11-07T11:50:31.738Z,16.82
2022-11-07T11:51:31.739Z,16.77
2022-11-07T11:52:31.729Z,16.73
2022-11-07T11:53:31.723Z,16.65
2022-11-07T11:54:31.780Z,16.77
2022-11-07T11:55:31.658Z,16.66
2022-11-07T11:56:31.681Z,16.73
2022-11-07T11:57:31.646Z,16.59
2022-11-07T11:58:31.631Z,16.66
2022-11-07T11:59:31.598Z,16.60
2022-11-07T12:00:31.610Z,16.54
2022-11-07T12:01:31.603Z,16.55
2022-11-07T12:02:31.660Z,16.54
2022-11-07T12:03:31.630Z,16.51
2022-11-07T12:04:31.566Z,16.57
2022-11-07T12:05:31.571Z,16.62
2022-11-07T12:06:31.579Z,16.63
2022-11-07T12:07:31.538Z,16.65
2022-11-07T12:08:31.511Z,16.66
2022-11-07T12:09:31.567Z,16.72
2022-11-07T12:10:31.477Z,16.65
2022-11-07T12:11:31.501Z,16.62
2022-11-07T12:12:31.449Z,16.75
2022-11-07T12:13:31.444Z,16.77
2022-11-07T12:14:31.474Z,16.72
2022-11-07T12:15:31.412Z,16.72
2022-11-07T12:16:31.424Z,16.69
2022-11-07T12:17:31.519Z,16.75
2022-11-07T12:18:31.416Z,16.81
2022-11-07T12:19:31.438Z,16.77
2022-11-07T12:20:31.376Z,16.82
2022-11-07T12:21:31.373Z,16.82
2022-11-07T12:22:31.349Z,16.69
2022-11-07T12:23:31.434Z,16.87
2022-11-07T12:24:31.340Z,16.82
2022-11-07T12:25:31.312Z,16.77
2022-11-07T12:26:31.334Z,16.66
2022-11-07T12:27:31.322Z,16.70
2022-11-07T12:28:31.335Z,16.57
2022-11-07T12:29:31.290Z,16.48
2022-11-07T12:30:31.271Z,16.48
2022-11-07T12:31:31.330Z,16.47
2022-11-07T12:32:31.244Z,16.55
2022-11-07T12:33:31.228Z,16.47
2022-11-07T12:34:31.222Z,16.50
2022-11-07T12:35:31.382Z,16.50
2022-11-07T12:36:31.205Z,16.50
2022-11-07T12:37:31.188Z,16.48
2022-11-07T12:38:31.232Z,16.48
2022-11-07T12:39:31.178Z,16.45
2022-11-07T12:40:31.152Z,16.52
2022-11-07T12:41:31.180Z,16.51
2022-11-07T12:42:31.304Z,16.60
2022-11-07T12:43:31.172Z,16.73
2022-11-07T12:44:31.121Z,16.99
2022-11-07T12:45:31.159Z,17.33
2022-11-07T12:46:31.125Z,17.28
2022-11-07T12:47:31.099Z,17.45
2022-11-07T12:48:31.142Z,17.66
2022-11-07T12:49:31.064Z,17.73
2022-11-07T12:50:31.041Z,17.49
2022-11-07T12:51:31.057Z,17.40
2022-11-07T12:52:31.060Z,17.36
2022-11-07T12:53:31.033Z,17.27